SXANS LGAV-LGMG
Flight info
| Callsign | SXANS |
|---|---|
| Flight time | 0h 22m |
| Altitude | 4500 |
| Route | AGIOSTHOMAS STAVROS HOLARGOS ILIOUP HELLINIKION KASTELLA MGR |
| Aircraft | C172/L-SDE1E2E3FGHIJ2J3J4J5M1RWXYZ/LB1 |
Departure
| Time | 2026-05-06 13:03 |
|---|---|
| Airport | Athens Eleftherios Venizelos International Airport (LGAV) |
Arrival
| Time | 2026-05-06 13:25 |
|---|---|
| Airport | Megara Air Base (LGMG) |
| Time | Latitude | Longitude | Altitude | Speed | Heading |
|---|---|---|---|---|---|
| 2026-05-06 12:53 | 37.95048 | 23.96202 | 300 ft | 0 kts | 37° |
| 2026-05-06 12:58 | 37.95056 | 23.96215 | 300 ft | 4 kts | 73° |
| 2026-05-06 12:58 | 37.95016 | 23.96249 | 299 ft | 11 kts | 133° |
| 2026-05-06 12:59 | 37.94970 | 23.96344 | 298 ft | 12 kts | 68° |
| 2026-05-06 12:59 | 37.95032 | 23.96447 | 302 ft | 15 kts | 44° |
| 2026-05-06 12:59 | 37.95127 | 23.96545 | 305 ft | 16 kts | 34° |
| 2026-05-06 12:59 | 37.95216 | 23.96630 | 306 ft | 17 kts | 50° |
| 2026-05-06 13:00 | 37.95222 | 23.96773 | 306 ft | 17 kts | 56° |
| 2026-05-06 13:00 | 37.95302 | 23.96864 | 308 ft | 14 kts | 73° |
| 2026-05-06 13:00 | 37.95269 | 23.96946 | 308 ft | 0 kts | 127° |
| 2026-05-06 13:01 | 37.95268 | 23.96947 | 308 ft | 2 kts | 126° |
| 2026-05-06 13:01 | 37.95225 | 23.97018 | 308 ft | 14 kts | 131° |
| 2026-05-06 13:01 | 37.95112 | 23.96953 | 306 ft | 40 kts | 218° |
| 2026-05-06 13:02 | 37.94801 | 23.96655 | 402 ft | 58 kts | 206° |
| 2026-05-06 13:02 | 37.94423 | 23.96327 | 514 ft | 70 kts | 206° |
| 2026-05-06 13:02 | 37.93996 | 23.95975 | 675 ft | 74 kts | 206° |
| 2026-05-06 13:02 | 37.93720 | 23.95438 | 841 ft | 80 kts | 262° |
| 2026-05-06 13:03 | 37.93907 | 23.94808 | 1039 ft | 79 kts | 299° |
| 2026-05-06 13:03 | 37.94183 | 23.94208 | 1211 ft | 80 kts | 289° |
| 2026-05-06 13:03 | 37.94405 | 23.93535 | 1356 ft | 85 kts | 286° |
| 2026-05-06 13:03 | 37.94627 | 23.92829 | 1506 ft | 88 kts | 287° |
| 2026-05-06 13:04 | 37.94855 | 23.92092 | 1654 ft | 91 kts | 287° |
| 2026-05-06 13:04 | 37.95084 | 23.91344 | 1798 ft | 92 kts | 287° |
| 2026-05-06 13:04 | 37.95312 | 23.90570 | 1943 ft | 94 kts | 287° |
| 2026-05-06 13:04 | 37.95540 | 23.89795 | 2080 ft | 95 kts | 286° |
| 2026-05-06 13:05 | 37.95920 | 23.89032 | 2076 ft | 110 kts | 315° |
| 2026-05-06 13:05 | 37.96518 | 23.88455 | 2215 ft | 104 kts | 322° |
| 2026-05-06 13:05 | 37.97104 | 23.87940 | 2399 ft | 97 kts | 323° |
| 2026-05-06 13:05 | 37.97647 | 23.87467 | 2578 ft | 93 kts | 323° |
| 2026-05-06 13:06 | 37.98165 | 23.87011 | 2762 ft | 88 kts | 320° |
| 2026-05-06 13:06 | 37.98651 | 23.86543 | 2948 ft | 85 kts | 319° |
| 2026-05-06 13:06 | 37.99109 | 23.86106 | 3130 ft | 81 kts | 319° |
| 2026-05-06 13:06 | 37.99552 | 23.85685 | 3311 ft | 78 kts | 319° |
| 2026-05-06 13:07 | 37.99979 | 23.85280 | 3470 ft | 77 kts | 318° |
| 2026-05-06 13:07 | 38.00423 | 23.84861 | 3593 ft | 82 kts | 319° |
| 2026-05-06 13:07 | 38.00894 | 23.84419 | 3715 ft | 86 kts | 318° |
| 2026-05-06 13:07 | 38.01359 | 23.83917 | 3841 ft | 88 kts | 311° |
| 2026-05-06 13:08 | 38.01735 | 23.83302 | 3967 ft | 89 kts | 299° |
| 2026-05-06 13:08 | 38.01897 | 23.82565 | 4098 ft | 88 kts | 258° |
| 2026-05-06 13:08 | 38.01594 | 23.81924 | 4234 ft | 87 kts | 218° |
| 2026-05-06 13:08 | 38.01089 | 23.81474 | 4358 ft | 88 kts | 212° |
| 2026-05-06 13:09 | 38.00567 | 23.81048 | 4476 ft | 90 kts | 211° |
| 2026-05-06 13:09 | 38.00032 | 23.80619 | 4594 ft | 91 kts | 211° |
| 2026-05-06 13:09 | 37.99440 | 23.80170 | 4548 ft | 107 kts | 207° |
| 2026-05-06 13:09 | 37.98758 | 23.79716 | 4477 ft | 111 kts | 207° |
| 2026-05-06 13:10 | 37.98087 | 23.79279 | 4486 ft | 106 kts | 206° |
| 2026-05-06 13:10 | 37.97429 | 23.78859 | 4487 ft | 104 kts | 206° |
| 2026-05-06 13:10 | 37.96816 | 23.78471 | 4488 ft | 104 kts | 206° |
| 2026-05-06 13:10 | 37.96167 | 23.78064 | 4488 ft | 103 kts | 206° |
| 2026-05-06 13:11 | 37.95528 | 23.77666 | 4489 ft | 103 kts | 206° |
| 2026-05-06 13:11 | 37.94878 | 23.77262 | 4488 ft | 103 kts | 206° |
| 2026-05-06 13:11 | 37.94224 | 23.76872 | 4488 ft | 103 kts | 199° |
| 2026-05-06 13:11 | 37.93539 | 23.76630 | 4483 ft | 102 kts | 205° |
| 2026-05-06 13:12 | 37.92901 | 23.76206 | 4488 ft | 102 kts | 208° |
| 2026-05-06 13:12 | 37.92274 | 23.75781 | 4487 ft | 102 kts | 208° |
| 2026-05-06 13:12 | 37.91640 | 23.75358 | 4486 ft | 102 kts | 207° |
| 2026-05-06 13:12 | 37.91003 | 23.74942 | 4486 ft | 102 kts | 207° |
| 2026-05-06 13:13 | 37.90369 | 23.74534 | 4485 ft | 103 kts | 206° |
| 2026-05-06 13:13 | 37.89728 | 23.74126 | 4486 ft | 103 kts | 206° |
| 2026-05-06 13:13 | 37.89088 | 23.73723 | 4485 ft | 103 kts | 206° |
| 2026-05-06 13:13 | 37.88440 | 23.73317 | 4484 ft | 103 kts | 206° |
| 2026-05-06 13:14 | 37.87878 | 23.72767 | 4475 ft | 103 kts | 238° |
| 2026-05-06 13:14 | 37.87755 | 23.71900 | 4475 ft | 103 kts | 280° |
| 2026-05-06 13:14 | 37.88116 | 23.71114 | 4480 ft | 103 kts | 311° |
| 2026-05-06 13:14 | 37.88623 | 23.70473 | 4483 ft | 104 kts | 315° |
| 2026-05-06 13:15 | 37.88865 | 23.70187 | 4484 ft | 104 kts | 315° |
| 2026-05-06 13:15 | 37.89263 | 23.69731 | 4484 ft | 104 kts | 316° |
| 2026-05-06 13:15 | 37.89805 | 23.69125 | 4483 ft | 104 kts | 316° |
| 2026-05-06 13:15 | 37.90358 | 23.68522 | 4482 ft | 104 kts | 317° |
| 2026-05-06 13:16 | 37.90916 | 23.67925 | 4483 ft | 105 kts | 317° |
| 2026-05-06 13:16 | 37.91471 | 23.67338 | 4482 ft | 105 kts | 318° |
| 2026-05-06 13:16 | 37.92036 | 23.66746 | 4482 ft | 105 kts | 319° |
| 2026-05-06 13:16 | 37.92603 | 23.66158 | 4482 ft | 105 kts | 319° |
| 2026-05-06 13:17 | 37.93175 | 23.65567 | 4483 ft | 105 kts | 319° |
| 2026-05-06 13:17 | 37.93707 | 23.64930 | 4483 ft | 104 kts | 298° |
| 2026-05-06 13:17 | 37.93937 | 23.64074 | 4487 ft | 104 kts | 282° |
| 2026-05-06 13:17 | 37.94096 | 23.63177 | 4485 ft | 104 kts | 280° |
| 2026-05-06 13:18 | 37.94245 | 23.62283 | 4501 ft | 103 kts | 279° |
| 2026-05-06 13:18 | 37.94386 | 23.61396 | 4507 ft | 103 kts | 279° |
| 2026-05-06 13:18 | 37.94526 | 23.60499 | 4509 ft | 103 kts | 279° |
| 2026-05-06 13:18 | 37.94664 | 23.59602 | 4510 ft | 103 kts | 279° |
| 2026-05-06 13:19 | 37.94799 | 23.58714 | 4510 ft | 103 kts | 279° |
| 2026-05-06 13:19 | 37.94935 | 23.57803 | 4510 ft | 103 kts | 278° |
| 2026-05-06 13:19 | 37.95067 | 23.56915 | 4511 ft | 103 kts | 278° |
| 2026-05-06 13:19 | 37.95200 | 23.56014 | 4511 ft | 104 kts | 278° |
| 2026-05-06 13:20 | 37.95332 | 23.55110 | 4508 ft | 104 kts | 278° |
| 2026-05-06 13:20 | 37.95464 | 23.54202 | 4508 ft | 104 kts | 278° |
| 2026-05-06 13:20 | 37.95593 | 23.53307 | 4510 ft | 104 kts | 278° |
| 2026-05-06 13:20 | 37.95725 | 23.52395 | 4509 ft | 104 kts | 279° |
| 2026-05-06 13:21 | 37.95861 | 23.51454 | 4371 ft | 116 kts | 279° |
| 2026-05-06 13:21 | 37.96016 | 23.50422 | 4076 ft | 122 kts | 280° |
| 2026-05-06 13:21 | 37.96180 | 23.49351 | 3786 ft | 125 kts | 280° |
| 2026-05-06 13:21 | 37.96341 | 23.48278 | 3501 ft | 126 kts | 280° |
| 2026-05-06 13:22 | 37.96505 | 23.47176 | 3208 ft | 125 kts | 280° |
| 2026-05-06 13:22 | 37.96766 | 23.46183 | 2908 ft | 116 kts | 306° |
| 2026-05-06 13:22 | 37.97316 | 23.45484 | 2612 ft | 109 kts | 319° |
| 2026-05-06 13:22 | 37.97870 | 23.44860 | 2323 ft | 107 kts | 319° |
| 2026-05-06 13:23 | 37.98419 | 23.44244 | 2027 ft | 105 kts | 319° |
| 2026-05-06 13:23 | 37.98795 | 23.43469 | 1708 ft | 106 kts | 283° |
| 2026-05-06 13:23 | 37.98855 | 23.42518 | 1423 ft | 109 kts | 265° |
| 2026-05-06 13:23 | 37.98768 | 23.41592 | 1155 ft | 107 kts | 260° |
| 2026-05-06 13:24 | 37.98680 | 23.40679 | 886 ft | 99 kts | 257° |
| 2026-05-06 13:24 | 37.98592 | 23.39869 | 598 ft | 89 kts | 270° |
| 2026-05-06 13:24 | 37.98499 | 23.39214 | 485 ft | 67 kts | 256° |
| 2026-05-06 13:24 | 37.98438 | 23.38634 | 350 ft | 66 kts | 257° |
| 2026-05-06 13:25 | 37.98371 | 23.38061 | 222 ft | 67 kts | 251° |
| 2026-05-06 13:25 | 37.98307 | 23.37483 | 111 ft | 61 kts | 254° |
| 2026-05-06 13:25 | 37.98249 | 23.36964 | 52 ft | 50 kts | 259° |
| 2026-05-06 13:25 | 37.98210 | 23.36641 | 61 ft | 25 kts | 264° |
| 2026-05-06 13:26 | 37.98193 | 23.36466 | 62 ft | 15 kts | 264° |
| 2026-05-06 13:26 | 37.98153 | 23.36405 | 64 ft | 7 kts | 172° |
| 2026-05-06 13:26 | 37.98106 | 23.36464 | 68 ft | 16 kts | 81° |
| 2026-05-06 13:26 | 37.98129 | 23.36647 | 65 ft | 23 kts | 83° |
| 2026-05-06 13:27 | 37.98152 | 23.36870 | 59 ft | 28 kts | 81° |
| 2026-05-06 13:27 | 37.98181 | 23.37120 | 51 ft | 27 kts | 81° |
| 2026-05-06 13:27 | 37.98175 | 23.37321 | 47 ft | 20 kts | 116° |
| 2026-05-06 13:27 | 37.98108 | 23.37487 | 48 ft | 21 kts | 117° |
| 2026-05-06 13:28 | 37.98045 | 23.37623 | 49 ft | 13 kts | 160° |
| 2026-05-06 13:28 | 37.97984 | 23.37649 | 50 ft | 3 kts | 84° |
| 2026-05-06 13:28 | 37.97986 | 23.37659 | 50 ft | 0 kts | 84° |